Time,TemperatureF,DewpointF,PressureIn,WindDirection,WindDirectionDegrees,WindSpeedMPH,WindSpeedGustMPH,Humidity,HourlyPrecipIn,Conditions,Clouds,dailyrainin,SolarRadiationWatts/m^2,SoftwareType,DateUTC
2013-04-30 00:01:00,70.1,56.5,23.17,South,169,11.0,11.0,62,0.00,,,0.00,976,Wunderground v.1.15,2013-04-30 05:01:00,
2013-04-30 00:07:00,70.3,56.2,23.18,SSE,167,12.0,15.0,61,0.00,,,0.00,991,Wunderground v.1.15,2013-04-30 05:07:00,
2013-04-30 00:13:00,70.4,55.8,23.18,SSE,157,12.0,13.0,60,0.00,,,0.00,993,Wunderground v.1.15,2013-04-30 05:13:00,
2013-04-30 00:19:00,70.1,56.0,23.19,SSE,163,11.0,13.0,61,0.00,,,0.00,991,Wunderground v.1.15,2013-04-30 05:19:00,
2013-04-30 00:25:00,69.7,56.1,23.19,SSE,157,10.0,13.0,62,0.00,,,0.00,977,Wunderground v.1.15,2013-04-30 05:25:00,
2013-04-30 00:31:00,69.4,56.3,23.20,SSE,158,11.0,11.0,63,0.00,,,0.00,967,Wunderground v.1.15,2013-04-30 05:31:00,
2013-04-30 00:37:00,69.4,56.3,23.20,South,172,12.0,13.0,63,0.00,,,0.00,977,Wunderground v.1.15,2013-04-30 05:37:00,
2013-04-30 00:43:00,69.2,56.1,23.21,SSE,161,12.0,14.0,63,0.00,,,0.00,967,Wunderground v.1.15,2013-04-30 05:43:00,
2013-04-30 00:49:00,69.0,56.3,23.22,SSE,167,13.0,13.0,64,0.00,,,0.00,965,Wunderground v.1.15,2013-04-30 05:49:00,
2013-04-30 00:55:00,68.7,56.0,23.22,SSW,196,12.0,13.0,64,0.00,,,0.00,953,Wunderground v.1.15,2013-04-30 05:55:00,
2013-04-30 01:01:00,68.8,55.7,23.22,South,171,12.0,17.0,63,0.00,,,0.00,958,Wunderground v.1.15,2013-04-30 06:01:00,
2013-04-30 01:07:00,68.7,55.6,23.23,SSE,168,12.0,17.0,63,0.00,,,0.00,963,Wunderground v.1.15,2013-04-30 06:07:00,
2013-04-30 01:13:00,68.5,55.4,23.23,South,182,12.0,13.0,63,0.00,,,0.00,953,Wunderground v.1.15,2013-04-30 06:13:00,
2013-04-30 01:19:00,68.4,55.3,23.24,South,175,13.0,14.0,63,0.00,,,0.00,939,Wunderground v.1.15,2013-04-30 06:19:00,
2013-04-30 01:25:00,68.2,55.1,23.24,South,183,13.0,14.0,63,0.00,,,0.00,942,Wunderground v.1.15,2013-04-30 06:25:00,
2013-04-30 01:31:00,68.1,55.0,23.25,South,175,13.0,13.0,63,0.00,,,0.00,940,Wunderground v.1.15,2013-04-30 06:31:00,
2013-04-30 01:37:00,67.7,55.1,23.26,South,173,12.0,13.0,64,0.00,,,0.00,932,Wunderground v.1.15,2013-04-30 06:37:00,
2013-04-30 01:43:00,67.6,55.0,23.26,South,188,12.0,16.0,64,0.00,,,0.00,919,Wunderground v.1.15,2013-04-30 06:43:00,
2013-04-30 01:49:00,67.4,54.8,23.26,South,169,12.0,12.0,64,0.00,,,0.00,926,Wunderground v.1.15,2013-04-30 06:49:00,
2013-04-30 01:55:00,67.1,54.5,23.27,South,175,12.0,13.0,64,0.00,,,0.00,919,Wunderground v.1.15,2013-04-30 06:55:00,
2013-04-30 02:01:00,67.0,54.4,23.27,SSW,201,12.0,20.0,64,0.00,,,0.00,914,Wunderground v.1.15,2013-04-30 07:01:00,
2013-04-30 02:07:00,67.2,54.2,23.28,South,186,13.0,20.0,63,0.00,,,0.00,921,Wunderground v.1.15,2013-04-30 07:07:00,
2013-04-30 02:13:00,67.1,53.6,23.28,SSW,194,13.0,20.0,62,0.00,,,0.00,914,Wunderground v.1.15,2013-04-30 07:13:00,
2013-04-30 02:19:00,67.2,53.3,23.29,South,184,13.0,16.0,61,0.00,,,0.00,918,Wunderground v.1.15,2013-04-30 07:19:00,
2013-04-30 02:25:00,67.3,53.4,23.29,South,190,14.0,18.0,61,0.00,,,0.00,933,Wunderground v.1.15,2013-04-30 07:25:00,
2013-04-30 02:31:00,67.3,52.9,23.30,South,184,14.0,14.0,60,0.00,,,0.00,926,Wunderground v.1.15,2013-04-30 07:31:00,
2013-04-30 02:37:00,67.7,52.4,23.30,SSW,198,16.0,16.0,58,0.00,,,0.00,930,Wunderground v.1.15,2013-04-30 07:37:00,
2013-04-30 02:43:00,67.9,52.1,23.31,South,180,17.0,17.0,57,0.00,,,0.00,942,Wunderground v.1.15,2013-04-30 07:43:00,
2013-04-30 02:49:00,67.9,51.6,23.31,SSW,205,17.0,18.0,56,0.00,,,0.00,940,Wunderground v.1.15,2013-04-30 07:49:00,
2013-04-30 02:55:00,67.7,51.4,23.32,SSW,197,17.0,20.0,56,0.00,,,0.00,942,Wunderground v.1.15,2013-04-30 07:55:00,
2013-04-30 03:01:00,67.9,51.1,23.32,SSW,208,18.0,21.0,55,0.00,,,0.00,942,Wunderground v.1.15,2013-04-30 08:01:00,
2013-04-30 03:07:00,67.9,51.1,23.33,SSW,211,19.0,21.0,55,0.00,,,0.00,940,Wunderground v.1.15,2013-04-30 08:07:00,
2013-04-30 03:13:00,68.0,50.7,23.33,SSW,206,20.0,22.0,54,0.00,,,0.00,942,Wunderground v.1.15,2013-04-30 08:13:00,
2013-04-30 03:19:00,67.9,51.1,23.34,SSW,205,20.0,24.0,55,0.00,,,0.00,947,Wunderground v.1.15,2013-04-30 08:19:00,
2013-04-30 03:25:00,67.9,51.1,23.34,SSW,204,21.0,25.0,55,0.00,,,0.00,946,Wunderground v.1.15,2013-04-30 08:25:00,
2013-04-30 03:31:00,67.9,51.1,23.35,SW,218,20.0,20.0,55,0.00,,,0.00,944,Wunderground v.1.15,2013-04-30 08:31:00,
2013-04-30 03:37:00,67.6,50.9,23.35,SW,218,19.0,24.0,55,0.00,,,0.00,937,Wunderground v.1.15,2013-04-30 08:37:00,
2013-04-30 03:43:00,67.7,50.9,23.36,SSW,206,20.0,25.0,55,0.00,,,0.00,935,Wunderground v.1.15,2013-04-30 08:43:00,
2013-04-30 03:49:00,67.7,50.9,23.36,SSW,207,21.0,21.0,55,0.00,,,0.00,939,Wunderground v.1.15,2013-04-30 08:49:00,
2013-04-30 03:55:00,67.5,51.2,23.37,SSW,202,20.0,21.0,56,0.00,,,0.00,935,Wunderground v.1.15,2013-04-30 08:55:00,
2013-04-30 04:01:00,67.7,50.9,23.37,SSW,203,20.0,27.0,55,0.00,,,0.00,928,Wunderground v.1.15,2013-04-30 09:01:00,
2013-04-30 04:07:00,67.6,50.9,23.37,SW,215,20.0,27.0,55,0.00,,,0.00,937,Wunderground v.1.15,2013-04-30 09:07:00,
2013-04-30 04:13:00,67.6,50.9,23.38,SSW,207,19.0,24.0,55,0.00,,,0.00,940,Wunderground v.1.15,2013-04-30 09:13:00,
2013-04-30 04:19:00,67.6,50.9,23.38,SSW,213,19.0,20.0,55,0.00,,,0.00,944,Wunderground v.1.15,2013-04-30 09:19:00,
2013-04-30 04:25:00,67.7,50.5,23.39,SSW,207,20.0,29.0,54,0.00,,,0.00,946,Wunderground v.1.15,2013-04-30 09:25:00,
2013-04-30 04:31:00,67.9,50.6,23.39,SSW,207,21.0,21.0,54,0.00,,,0.00,944,Wunderground v.1.15,2013-04-30 09:31:00,
2013-04-30 04:37:00,67.6,50.9,23.40,SW,222,19.0,21.0,55,0.00,,,0.00,942,Wunderground v.1.15,2013-04-30 09:37:00,
2013-04-30 04:43:00,67.6,50.9,23.40,SSW,211,19.0,21.0,55,0.00,,,0.00,944,Wunderground v.1.15,2013-04-30 09:43:00,
2013-04-30 04:49:00,67.4,50.7,23.40,SW,218,19.0,20.0,55,0.00,,,0.00,937,Wunderground v.1.15,2013-04-30 09:49:00,
2013-04-30 04:55:00,67.2,50.5,23.41,SSW,213,19.0,20.0,55,0.00,,,0.00,935,Wunderground v.1.15,2013-04-30 09:55:00,
2013-04-30 05:01:00,67.0,50.8,23.41,SW,217,18.0,30.0,56,0.00,,,0.00,930,Wunderground v.1.15,2013-04-30 10:01:00,
2013-04-30 05:07:00,66.9,50.7,23.42,SSW,209,18.0,30.0,56,0.00,,,0.00,928,Wunderground v.1.15,2013-04-30 10:07:00,
2013-04-30 05:13:00,66.7,51.0,23.42,SSW,213,18.0,30.0,57,0.00,,,0.00,912,Wunderground v.1.15,2013-04-30 10:13:00,
2013-04-30 05:19:00,66.6,50.9,23.43,SSW,209,19.0,24.0,57,0.00,,,0.00,916,Wunderground v.1.15,2013-04-30 10:19:00,
2013-04-30 05:25:00,66.4,51.2,23.43,SW,223,19.0,24.0,58,0.00,,,0.00,911,Wunderground v.1.15,2013-04-30 10:25:00,
2013-04-30 05:31:00,66.4,51.2,23.44,SSW,209,19.0,19.0,58,0.00,,,0.00,914,Wunderground v.1.15,2013-04-30 10:31:00,
2013-04-30 05:37:00,66.2,51.0,23.44,SW,214,19.0,20.0,58,0.00,,,0.00,905,Wunderground v.1.15,2013-04-30 10:37:00,
2013-04-30 05:43:00,65.8,51.1,23.44,SSW,205,17.0,22.0,59,0.00,,,0.00,889,Wunderground v.1.15,2013-04-30 10:43:00,
2013-04-30 05:49:00,65.8,51.1,23.45,SSW,206,17.0,17.0,59,0.00,,,0.00,888,Wunderground v.1.15,2013-04-30 10:49:00,
2013-04-30 05:55:00,65.7,51.4,23.46,SSW,209,18.0,18.0,60,0.00,,,0.00,863,Wunderground v.1.15,2013-04-30 10:55:00,
2013-04-30 06:00:00,65.5,51.2,23.46,SW,217,17.0,20.0,60,0.00,,,0.00,851,Wunderground v.1.15,2013-04-30 11:00:00,
2013-04-30 06:07:00,65.3,51.1,23.47,SSW,205,16.0,30.0,60,0.00,,,0.00,809,Wunderground v.1.15,2013-04-30 11:07:00,
2013-04-30 06:13:00,65.0,51.2,23.47,SSW,196,16.0,17.0,61,0.00,,,0.00,786,Wunderground v.1.15,2013-04-30 11:13:00,
2013-04-30 06:19:00,64.9,51.1,23.48,SSW,207,15.0,15.0,61,0.00,,,0.00,761,Wunderground v.1.15,2013-04-30 11:19:00,
2013-04-30 06:25:00,64.9,51.1,23.48,SSW,211,15.0,17.0,61,0.00,,,0.00,749,Wunderground v.1.15,2013-04-30 11:25:00,
2013-04-30 06:31:00,64.9,51.6,23.49,West,280,14.0,15.0,62,0.00,,,0.00,733,Wunderground v.1.15,2013-04-30 11:31:00,
2013-04-30 06:37:00,64.3,51.0,23.50,SSW,209,13.0,15.0,62,0.00,,,0.00,700,Wunderground v.1.15,2013-04-30 11:37:00,
2013-04-30 06:42:00,64.3,51.4,23.51,WNW,282,12.0,14.0,63,0.00,,,0.00,691,Wunderground v.1.15,2013-04-30 11:42:00,
2013-04-30 06:49:00,64.2,51.3,23.51,WNW,300,10.0,11.0,63,0.00,,,0.00,675,Wunderground v.1.15,2013-04-30 11:49:00,
2013-04-30 06:55:00,64.0,51.1,23.51,SW,232,9.0,13.0,63,0.00,,,0.00,649,Wunderground v.1.15,2013-04-30 11:55:00,
2013-04-30 07:01:00,64.3,51.4,23.52,West,275,10.0,28.0,63,0.00,,,0.00,654,Wunderground v.1.15,2013-04-30 12:01:00,
2013-04-30 07:07:00,64.3,51.4,23.52,WNW,295,9.0,28.0,63,0.00,,,0.00,638,Wunderground v.1.15,2013-04-30 12:07:00,
2013-04-30 07:13:00,64.0,51.1,23.52,WSW,250,7.0,9.0,63,0.00,,,0.00,624,Wunderground v.1.15,2013-04-30 12:13:00,
2013-04-30 07:19:00,63.7,50.9,23.53,West,263,5.0,6.0,63,0.00,,,0.00,599,Wunderground v.1.15,2013-04-30 12:19:00,
2013-04-30 07:25:00,63.6,51.2,23.52,WSW,248,5.0,6.0,64,0.00,,,0.00,594,Wunderground v.1.15,2013-04-30 12:25:00,
2013-04-30 07:30:00,63.5,51.5,23.52,SSW,205,4.0,5.0,65,0.00,,,0.00,563,Wunderground v.1.15,2013-04-30 12:30:00,
2013-04-30 07:37:00,63.7,52.1,23.51,SW,215,5.0,6.0,66,0.00,,,0.00,575,Wunderground v.1.15,2013-04-30 12:37:00,
2013-04-30 07:43:00,64.2,51.8,23.51,SW,222,5.0,6.0,64,0.00,,,0.00,587,Wunderground v.1.15,2013-04-30 12:43:00,
2013-04-30 07:49:00,64.7,51.4,23.50,SW,215,6.0,6.0,62,0.00,,,0.00,601,Wunderground v.1.15,2013-04-30 12:49:00,
2013-04-30 07:55:00,65.1,51.3,23.49,SW,232,6.0,7.0,61,0.00,,,0.00,592,Wunderground v.1.15,2013-04-30 12:55:00,
2013-04-30 08:01:00,65.3,51.5,23.48,WSW,241,5.0,23.0,61,0.00,,,0.00,599,Wunderground v.1.15,2013-04-30 13:01:00,
2013-04-30 08:07:00,65.5,51.7,23.48,WSW,252,5.0,23.0,61,0.00,,,0.00,598,Wunderground v.1.15,2013-04-30 13:07:00,
2013-04-30 08:13:00,63.2,47.2,23.47,WNW,302,7.0,12.0,56,0.00,,,0.00,561,Wunderground v.1.15,2013-04-30 13:13:00,
2013-04-30 08:19:00,59.9,46.4,23.47,NW,326,9.0,9.0,61,0.00,,,0.00,496,Wunderground v.1.15,2013-04-30 13:19:00,
2013-04-30 08:25:00,58.6,46.0,23.46,NNW,330,8.0,11.0,63,0.00,,,0.00,459,Wunderground v.1.15,2013-04-30 13:25:00,
2013-04-30 08:31:00,58.4,46.3,23.45,NW,312,8.0,9.0,64,0.00,,,0.00,445,Wunderground v.1.15,2013-04-30 13:31:00,
2013-04-30 08:37:00,58.5,45.9,23.45,North,355,6.0,9.0,63,0.00,,,0.00,450,Wunderground v.1.15,2013-04-30 13:37:00,
2013-04-30 08:43:00,58.3,46.2,23.45,NW,323,6.0,7.0,64,0.00,,,0.00,446,Wunderground v.1.15,2013-04-30 13:43:00,
2013-04-30 08:49:00,58.0,45.9,23.45,NW,314,7.0,9.0,64,0.00,,,0.00,443,Wunderground v.1.15,2013-04-30 13:49:00,
2013-04-30 08:55:00,57.7,45.6,23.44,NW,317,6.0,9.0,64,0.00,,,0.00,434,Wunderground v.1.15,2013-04-30 13:55:00,
2013-04-30 09:00:00,57.4,45.7,23.44,NNW,331,6.0,12.0,65,0.00,,,0.00,424,Wunderground v.1.15,2013-04-30 14:00:00,
2013-04-30 09:07:00,57.8,46.1,23.43,NNW,345,5.0,12.0,65,0.00,,,0.00,434,Wunderground v.1.15,2013-04-30 14:07:00,
2013-04-30 09:13:00,58.1,46.0,23.43,North,5,5.0,7.0,64,0.00,,,0.00,445,Wunderground v.1.15,2013-04-30 14:13:00,
2013-04-30 09:19:00,58.2,45.7,23.43,North,360,6.0,6.0,63,0.00,,,0.00,452,Wunderground v.1.15,2013-04-30 14:19:00,
2013-04-30 09:25:00,58.2,46.1,23.42,North,355,6.0,10.0,64,0.00,,,0.00,452,Wunderground v.1.15,2013-04-30 14:25:00,
2013-04-30 09:31:00,58.4,45.8,23.42,North,360,7.0,11.0,63,0.00,,,0.00,455,Wunderground v.1.15,2013-04-30 14:31:00,
2013-04-30 09:37:00,58.6,46.0,23.41,NNW,344,6.0,11.0,63,0.00,,,0.00,455,Wunderground v.1.15,2013-04-30 14:37:00,
2013-04-30 09:43:00,58.5,45.5,23.41,NNW,344,5.0,7.0,62,0.00,,,0.00,461,Wunderground v.1.15,2013-04-30 14:43:00,
2013-04-30 09:48:00,58.6,46.5,23.41,NNW,346,6.0,6.0,64,0.00,,,0.00,452,Wunderground v.1.15,2013-04-30 14:48:00,
2013-04-30 09:55:00,59.6,46.6,23.41,North,355,6.0,10.0,62,0.00,,,0.00,469,Wunderground v.1.15,2013-04-30 14:55:00,
2013-04-30 10:01:00,60.0,46.9,23.41,North,355,7.0,9.0,62,0.00,,,0.00,480,Wunderground v.1.15,2013-04-30 15:01:00,
2013-04-30 10:07:00,60.4,46.4,23.41,North,355,7.0,16.0,60,0.00,,,0.00,482,Wunderground v.1.15,2013-04-30 15:07:00,
2013-04-30 10:13:00,60.8,46.4,23.40,NNE,33,7.0,16.0,59,0.00,,,0.00,487,Wunderground v.1.15,2013-04-30 15:13:00,
2013-04-30 10:19:00,61.4,46.9,23.40,NNE,25,7.0,7.0,59,0.00,,,0.00,499,Wunderground v.1.15,2013-04-30 15:19:00,
2013-04-30 10:25:00,62.3,47.3,23.39,NNE,17,10.0,10.0,58,0.00,,,0.00,513,Wunderground v.1.15,2013-04-30 15:25:00,
2013-04-30 10:31:00,62.3,46.4,23.39,North,9,9.0,10.0,56,0.00,,,0.00,524,Wunderground v.1.15,2013-04-30 15:31:00,
2013-04-30 10:37:00,62.1,46.7,23.38,NNE,13,8.0,10.0,57,0.00,,,0.00,524,Wunderground v.1.15,2013-04-30 15:37:00,
2013-04-30 10:43:00,62.4,46.5,23.38,NE,44,8.0,9.0,56,0.00,,,0.00,527,Wunderground v.1.15,2013-04-30 15:43:00,
2013-04-30 10:49:00,62.3,46.4,23.37,NNE,14,7.0,10.0,56,0.00,,,0.00,526,Wunderground v.1.15,2013-04-30 15:49:00,
2013-04-30 10:55:00,62.3,46.4,23.37,NNW,333,7.0,12.0,56,0.00,,,0.00,522,Wunderground v.1.15,2013-04-30 15:55:00,
2013-04-30 11:01:00,62.3,46.4,23.36,NNW,336,7.0,15.0,56,0.00,,,0.00,526,Wunderground v.1.15,2013-04-30 16:01:00,
2013-04-30 11:07:00,62.7,46.8,23.36,NNW,329,7.0,15.0,56,0.00,,,0.00,524,Wunderground v.1.15,2013-04-30 16:07:00,
2013-04-30 11:13:00,63.2,46.3,23.35,NNE,26,8.0,15.0,54,0.00,,,0.00,543,Wunderground v.1.15,2013-04-30 16:13:00,
2013-04-30 11:18:00,63.5,46.6,23.35,NNE,19,9.0,12.0,54,0.00,,,0.00,547,Wunderground v.1.15,2013-04-30 16:18:00,
2013-04-30 11:25:00,64.2,46.7,23.34,NE,42,9.0,12.0,53,0.00,,,0.00,559,Wunderground v.1.15,2013-04-30 16:25:00,
2013-04-30 11:31:00,64.4,45.9,23.34,NNE,28,9.0,11.0,51,0.00,,,0.00,568,Wunderground v.1.15,2013-04-30 16:31:00,
2013-04-30 11:37:00,65.1,46.5,23.33,NNE,17,10.0,11.0,51,0.00,,,0.00,582,Wunderground v.1.15,2013-04-30 16:37:00,
2013-04-30 11:43:00,64.7,46.1,23.33,NNE,14,10.0,14.0,51,0.00,,,0.00,578,Wunderground v.1.15,2013-04-30 16:43:00,
2013-04-30 11:49:00,65.5,46.4,23.33,NE,36,11.0,12.0,50,0.00,,,0.00,592,Wunderground v.1.15,2013-04-30 16:49:00,
2013-04-30 11:55:00,65.7,46.0,23.32,NE,41,10.0,12.0,49,0.00,,,0.00,599,Wunderground v.1.15,2013-04-30 16:55:00,
2013-04-30 12:00:00,65.8,46.1,23.32,NE,39,9.0,13.0,49,0.00,,,0.00,591,Wunderground v.1.15,2013-04-30 17:00:00,
2013-04-30 12:07:00,66.0,46.3,23.31,NNE,22,11.0,17.0,49,0.00,,,0.00,601,Wunderground v.1.15,2013-04-30 17:07:00,
2013-04-30 12:13:00,66.4,46.1,23.31,North,5,12.0,12.0,48,0.00,,,0.00,624,Wunderground v.1.15,2013-04-30 17:13:00,
2013-04-30 12:19:00,66.5,46.2,23.30,North,360,9.0,11.0,48,0.00,,,0.00,617,Wunderground v.1.15,2013-04-30 17:19:00,
2013-04-30 12:25:00,67.0,46.7,23.29,NNE,24,10.0,16.0,48,0.00,,,0.00,638,Wunderground v.1.15,2013-04-30 17:25:00,
2013-04-30 12:31:00,66.8,45.9,23.29,NNE,17,11.0,14.0,47,0.00,,,0.00,626,Wunderground v.1.15,2013-04-30 17:31:00,
2013-04-30 12:37:00,66.8,46.5,23.28,NNE,22,11.0,14.0,48,0.00,,,0.00,628,Wunderground v.1.15,2013-04-30 17:37:00,
2013-04-30 12:42:00,66.4,46.7,23.28,NNE,20,9.0,10.0,49,0.00,,,0.00,626,Wunderground v.1.15,2013-04-30 17:42:00,
2013-04-30 12:48:00,66.3,46.6,23.27,NNE,22,8.0,11.0,49,0.00,,,0.00,608,Wunderground v.1.15,2013-04-30 17:48:00,
2013-04-30 12:55:00,67.2,46.8,23.27,NE,36,8.0,14.0,48,0.00,,,0.00,631,Wunderground v.1.15,2013-04-30 17:55:00,
2013-04-30 13:01:00,66.8,46.5,23.26,NNE,33,8.0,20.0,48,0.00,,,0.00,640,Wunderground v.1.15,2013-04-30 18:01:00,
2013-04-30 13:07:00,67.5,47.7,23.26,NNE,31,6.0,20.0,49,0.00,,,0.00,645,Wunderground v.1.15,2013-04-30 18:07:00,
2013-04-30 13:13:00,68.3,47.8,23.25,North,355,6.0,11.0,48,0.00,,,0.00,675,Wunderground v.1.15,2013-04-30 18:13:00,
2013-04-30 13:19:00,68.6,48.7,23.24,NNE,29,8.0,10.0,49,0.00,,,0.00,687,Wunderground v.1.15,2013-04-30 18:19:00,
2013-04-30 13:25:00,68.3,46.7,23.24,NNE,12,8.0,10.0,46,0.00,,,0.00,689,Wunderground v.1.15,2013-04-30 18:25:00,
2013-04-30 13:31:00,68.6,48.1,23.23,NNE,24,8.0,9.0,48,0.00,,,0.00,670,Wunderground v.1.15,2013-04-30 18:31:00,
2013-04-30 13:37:00,69.5,48.4,23.23,NE,42,6.0,11.0,47,0.00,,,0.00,701,Wunderground v.1.15,2013-04-30 18:37:00,
2013-04-30 13:43:00,69.6,48.5,23.22,NNE,19,6.0,7.0,47,0.00,,,0.00,719,Wunderground v.1.15,2013-04-30 18:43:00,
2013-04-30 13:49:00,69.3,48.2,23.21,NE,37,7.0,9.0,47,0.00,,,0.00,731,Wunderground v.1.15,2013-04-30 18:49:00,
2013-04-30 13:55:00,69.6,49.0,23.21,North,5,7.0,9.0,48,0.00,,,0.00,729,Wunderground v.1.15,2013-04-30 18:55:00,
2013-04-30 14:01:00,70.0,48.8,23.20,North,360,5.0,18.0,47,0.00,,,0.00,766,Wunderground v.1.15,2013-04-30 19:01:00,
2013-04-30 14:07:00,70.4,49.8,23.19,NNE,33,4.0,18.0,48,0.00,,,0.00,784,Wunderground v.1.15,2013-04-30 19:07:00,
2013-04-30 14:12:00,69.9,48.7,23.19,North,355,6.0,18.0,47,0.00,,,0.00,766,Wunderground v.1.15,2013-04-30 19:12:00,
2013-04-30 14:18:00,69.4,48.9,23.18,NE,47,7.0,7.0,48,0.00,,,0.00,717,Wunderground v.1.15,2013-04-30 19:18:00,
2013-04-30 14:25:00,69.6,49.0,23.17,NNE,15,5.0,7.0,48,0.00,,,0.00,710,Wunderground v.1.15,2013-04-30 19:25:00,
2013-04-30 14:31:00,70.0,49.4,23.17,NNE,24,4.0,4.0,48,0.00,,,0.00,722,Wunderground v.1.15,2013-04-30 19:31:00,
2013-04-30 14:37:00,69.8,49.2,23.17,North,10,5.0,5.0,48,0.00,,,0.00,708,Wunderground v.1.15,2013-04-30 19:37:00,
2013-04-30 14:43:00,69.9,49.3,23.16,NNE,29,5.0,6.0,48,0.00,,,0.00,707,Wunderground v.1.15,2013-04-30 19:43:00,
2013-04-30 14:49:00,70.2,49.6,23.15,NNE,22,5.0,5.0,48,0.00,,,0.00,712,Wunderground v.1.15,2013-04-30 19:49:00,
2013-04-30 14:55:00,70.4,48.6,23.14,NE,53,5.0,6.0,46,0.00,,,0.00,738,Wunderground v.1.15,2013-04-30 19:55:00,
2013-04-30 15:01:00,70.4,49.8,23.14,NNE,19,5.0,7.0,48,0.00,,,0.00,717,Wunderground v.1.15,2013-04-30 20:01:00,
2013-04-30 15:07:00,69.9,48.2,23.13,North,5,7.0,15.0,46,0.00,,,0.00,714,Wunderground v.1.15,2013-04-30 20:07:00,
2013-04-30 15:13:00,69.5,48.4,23.13,NNE,28,9.0,10.0,47,0.00,,,0.00,682,Wunderground v.1.15,2013-04-30 20:13:00,
2013-04-30 15:19:00,69.7,48.6,23.12,North,11,8.0,8.0,47,0.00,,,0.00,689,Wunderground v.1.15,2013-04-30 20:19:00,
2013-04-30 15:25:00,69.8,48.1,23.12,NNE,13,7.0,8.0,46,0.00,,,0.00,689,Wunderground v.1.15,2013-04-30 20:25:00,
2013-04-30 15:31:00,69.7,48.6,23.12,NNE,24,7.0,9.0,47,0.00,,,0.00,684,Wunderground v.1.15,2013-04-30 20:31:00,
2013-04-30 15:37:00,70.3,48.5,23.11,NNE,18,8.0,13.0,46,0.00,,,0.00,694,Wunderground v.1.15,2013-04-30 20:37:00,
2013-04-30 15:43:00,70.0,47.7,23.11,NE,36,9.0,13.0,45,0.00,,,0.00,694,Wunderground v.1.15,2013-04-30 20:43:00,
2013-04-30 15:49:00,69.9,48.2,23.11,NE,55,9.0,9.0,46,0.00,,,0.00,694,Wunderground v.1.15,2013-04-30 20:49:00,
2013-04-30 15:55:00,70.1,48.4,23.11,NNE,29,7.0,9.0,46,0.00,,,0.00,708,Wunderground v.1.15,2013-04-30 20:55:00,
2013-04-30 16:01:00,70.2,48.4,23.11,NNE,23,6.0,15.0,46,0.00,,,0.00,707,Wunderground v.1.15,2013-04-30 21:01:00,
2013-04-30 16:07:00,70.1,47.8,23.10,NE,51,8.0,15.0,45,0.00,,,0.00,698,Wunderground v.1.15,2013-04-30 21:07:00,
2013-04-30 16:13:00,70.1,48.4,23.10,ENE,57,9.0,11.0,46,0.00,,,0.00,689,Wunderground v.1.15,2013-04-30 21:13:00,
2013-04-30 16:19:00,70.5,48.1,23.10,NE,53,9.0,9.0,45,0.00,,,0.00,715,Wunderground v.1.15,2013-04-30 21:19:00,
2013-04-30 16:25:00,71.2,48.8,23.09,NNE,21,9.0,9.0,45,0.00,,,0.00,731,Wunderground v.1.15,2013-04-30 21:25:00,
2013-04-30 16:31:00,71.0,48.0,23.09,NNE,22,8.0,8.0,44,0.00,,,0.00,737,Wunderground v.1.15,2013-04-30 21:31:00,
2013-04-30 16:37:00,70.3,47.9,23.08,NE,46,9.0,12.0,45,0.00,,,0.00,708,Wunderground v.1.15,2013-04-30 21:37:00,
2013-04-30 16:42:00,70.4,47.4,23.08,NNE,25,10.0,11.0,44,0.00,,,0.00,717,Wunderground v.1.15,2013-04-30 21:42:00,
2013-04-30 16:48:00,71.1,48.1,23.08,NE,46,9.0,9.0,44,0.00,,,0.00,728,Wunderground v.1.15,2013-04-30 21:48:00,
2013-04-30 16:55:00,71.5,47.8,23.08,NNW,348,8.0,10.0,43,0.00,,,0.00,759,Wunderground v.1.15,2013-04-30 21:55:00,
2013-04-30 17:01:00,70.4,47.4,23.08,ENE,67,10.0,16.0,44,0.00,,,0.00,724,Wunderground v.1.15,2013-04-30 22:01:00,
2013-04-30 17:07:00,70.1,47.2,23.07,NNE,24,12.0,16.0,44,0.00,,,0.00,726,Wunderground v.1.15,2013-04-30 22:07:00,
2013-04-30 17:13:00,69.7,47.4,23.07,NNE,19,12.0,13.0,45,0.00,,,0.00,686,Wunderground v.1.15,2013-04-30 22:13:00,
2013-04-30 17:19:00,69.7,46.8,23.07,NE,42,11.0,15.0,44,0.00,,,0.00,677,Wunderground v.1.15,2013-04-30 22:19:00,
2013-04-30 17:25:00,69.8,47.5,23.06,NNE,24,11.0,15.0,45,0.00,,,0.00,677,Wunderground v.1.15,2013-04-30 22:25:00,
2013-04-30 17:31:00,69.9,47.0,23.06,NE,36,11.0,11.0,44,0.00,,,0.00,689,Wunderground v.1.15,2013-04-30 22:31:00,
2013-04-30 17:37:00,69.5,46.0,23.06,NE,42,12.0,13.0,43,0.00,,,0.00,679,Wunderground v.1.15,2013-04-30 22:37:00,
2013-04-30 17:43:00,69.5,46.0,23.06,NE,53,12.0,13.0,43,0.00,,,0.00,684,Wunderground v.1.15,2013-04-30 22:43:00,
2013-04-30 17:49:00,69.2,45.7,23.05,NE,41,12.0,12.0,43,0.00,,,0.00,679,Wunderground v.1.15,2013-04-30 22:49:00,
2013-04-30 17:55:00,68.9,45.5,23.05,NE,48,12.0,14.0,43,0.00,,,0.00,668,Wunderground v.1.15,2013-04-30 22:55:00,
2013-04-30 18:01:00,68.7,45.3,23.06,NNE,26,12.0,18.0,43,0.00,,,0.00,682,Wunderground v.1.15,2013-04-30 23:01:00,
2013-04-30 18:07:00,68.5,45.1,23.06,NE,47,12.0,18.0,43,0.00,,,0.00,673,Wunderground v.1.15,2013-04-30 23:07:00,
2013-04-30 18:12:00,68.3,44.9,23.07,NNE,27,12.0,18.0,43,0.00,,,0.00,663,Wunderground v.1.15,2013-04-30 23:12:00,
2013-04-30 18:19:00,68.2,44.8,23.08,NE,45,11.0,13.0,43,0.00,,,0.00,675,Wunderground v.1.15,2013-04-30 23:19:00,
2013-04-30 18:25:00,68.1,44.7,23.08,NNE,20,11.0,13.0,43,0.00,,,0.00,661,Wunderground v.1.15,2013-04-30 23:25:00,
2013-04-30 18:31:00,68.0,45.3,23.09,NNE,33,9.0,11.0,44,0.00,,,0.00,656,Wunderground v.1.15,2013-04-30 23:31:00,
2013-04-30 18:37:00,67.9,45.2,23.09,NE,35,9.0,11.0,44,0.00,,,0.00,643,Wunderground v.1.15,2013-04-30 23:37:00,
2013-04-30 18:43:00,67.9,45.2,23.10,NE,44,10.0,15.0,44,0.00,,,0.00,647,Wunderground v.1.15,2013-04-30 23:43:00,
2013-04-30 18:49:00,67.8,45.1,23.11,NNE,29,10.0,10.0,44,0.00,,,0.00,649,Wunderground v.1.15,2013-04-30 23:49:00,
2013-04-30 18:55:00,67.7,44.4,23.11,North,11,10.0,11.0,43,0.00,,,0.00,654,Wunderground v.1.15,2013-04-30 23:55:00,
2013-04-30 19:01:00,67.6,44.3,23.12,North,11,10.0,11.0,43,0.00,,,0.00,657,Wunderground v.1.15,2013-05-01 00:01:00,
2013-04-30 19:07:00,67.5,44.2,23.13,NNE,24,11.0,19.0,43,0.00,,,0.00,649,Wunderground v.1.15,2013-05-01 00:07:00,
2013-04-30 19:13:00,67.4,44.7,23.13,NE,56,11.0,16.0,44,0.00,,,0.00,666,Wunderground v.1.15,2013-05-01 00:13:00,
2013-04-30 19:19:00,67.2,44.5,23.14,NNE,23,11.0,11.0,44,0.00,,,0.00,670,Wunderground v.1.15,2013-05-01 00:19:00,
2013-04-30 19:25:00,67.0,44.4,23.15,NE,46,11.0,14.0,44,0.00,,,0.00,661,Wunderground v.1.15,2013-05-01 00:25:00,
2013-04-30 19:31:00,66.9,43.7,23.15,ENE,65,11.0,11.0,43,0.00,,,0.00,650,Wunderground v.1.15,2013-05-01 00:31:00,
2013-04-30 19:37:00,66.7,44.1,23.16,North,5,11.0,12.0,44,0.00,,,0.00,677,Wunderground v.1.15,2013-05-01 00:37:00,
2013-04-30 19:42:00,66.6,44.0,23.17,North,10,10.0,11.0,44,0.00,,,0.00,687,Wunderground v.1.15,2013-05-01 00:42:00,
2013-04-30 19:48:00,66.5,43.9,23.17,NNE,22,9.0,9.0,44,0.00,,,0.00,673,Wunderground v.1.15,2013-05-01 00:48:00,
2013-04-30 19:55:00,66.4,44.4,23.18,NNE,33,9.0,11.0,45,0.00,,,0.00,682,Wunderground v.1.15,2013-05-01 00:55:00,
2013-04-30 20:01:00,66.3,43.7,23.19,NE,42,9.0,18.0,44,0.00,,,0.00,686,Wunderground v.1.15,2013-05-01 01:01:00,
2013-04-30 20:07:00,66.2,44.2,23.19,NNE,21,9.0,18.0,45,0.00,,,0.00,689,Wunderground v.1.15,2013-05-01 01:07:00,
2013-04-30 20:13:00,66.0,44.0,23.20,NNE,30,9.0,11.0,45,0.00,,,0.00,694,Wunderground v.1.15,2013-05-01 01:13:00,
2013-04-30 20:19:00,65.7,43.8,23.21,NNE,15,7.0,7.0,45,0.00,,,0.00,710,Wunderground v.1.15,2013-05-01 01:19:00,
2013-04-30 20:25:00,65.5,43.6,23.22,NNE,19,6.0,10.0,45,0.00,,,0.00,710,Wunderground v.1.15,2013-05-01 01:25:00,
2013-04-30 20:31:00,65.4,42.9,23.23,NNE,19,8.0,10.0,44,0.00,,,0.00,721,Wunderground v.1.15,2013-05-01 01:31:00,
2013-04-30 20:37:00,65.1,43.2,23.23,NNE,15,7.0,12.0,45,0.00,,,0.00,740,Wunderground v.1.15,2013-05-01 01:37:00,
2013-04-30 20:43:00,65.0,42.5,23.24,NNE,24,8.0,12.0,44,0.00,,,0.00,752,Wunderground v.1.15,2013-05-01 01:43:00,
2013-04-30 20:49:00,65.0,42.5,23.24,North,11,8.0,9.0,44,0.00,,,0.00,777,Wunderground v.1.15,2013-05-01 01:49:00,
2013-04-30 20:55:00,64.5,42.7,23.25,NNE,33,9.0,10.0,45,0.00,,,0.00,791,Wunderground v.1.15,2013-05-01 01:55:00,
2013-04-30 21:01:00,64.3,42.5,23.25,NNE,33,9.0,20.0,45,0.00,,,0.00,803,Wunderground v.1.15,2013-05-01 02:01:00,
2013-04-30 21:07:00,64.1,42.9,23.27,NNE,19,8.0,20.0,46,0.00,,,0.00,826,Wunderground v.1.15,2013-05-01 02:07:00,
2013-04-30 21:12:00,63.4,45.5,23.27,NNW,348,8.0,20.0,52,0.00,,,0.01,775,Wunderground v.1.15,2013-05-01 02:12:00,
2013-04-30 21:18:00,62.3,45.4,23.28,NNE,28,7.0,10.0,54,0.00,,,0.01,691,Wunderground v.1.15,2013-05-01 02:18:00,
2013-04-30 21:25:00,61.9,45.1,23.29,NE,34,7.0,11.0,54,0.00,,,0.01,689,Wunderground v.1.15,2013-05-01 02:25:00,
2013-04-30 21:31:00,61.6,45.3,23.29,NE,45,9.0,10.0,55,0.00,,,0.01,705,Wunderground v.1.15,2013-05-01 02:31:00,
2013-04-30 21:37:00,61.6,45.3,23.30,NE,42,10.0,11.0,55,0.00,,,0.01,738,Wunderground v.1.15,2013-05-01 02:37:00,
2013-04-30 21:43:00,61.4,44.6,23.31,NNE,18,9.0,10.0,54,0.00,,,0.01,756,Wunderground v.1.15,2013-05-01 02:43:00,
2013-04-30 21:49:00,61.3,45.0,23.32,NNE,25,7.0,7.0,55,0.00,,,0.01,770,Wunderground v.1.15,2013-05-01 02:49:00,
2013-04-30 21:55:00,61.1,44.8,23.33,NNE,25,6.0,7.0,55,0.00,,,0.01,775,Wunderground v.1.15,2013-05-01 02:55:00,
2013-04-30 22:01:00,60.8,44.5,23.34,North,10,5.0,15.0,55,0.00,,,0.01,777,Wunderground v.1.15,2013-05-01 03:01:00,
2013-04-30 22:07:00,60.4,45.5,23.35,NNE,15,4.0,15.0,58,0.00,,,0.01,777,Wunderground v.1.15,2013-05-01 03:07:00,
2013-04-30 22:13:00,60.1,45.7,23.35,NNE,21,4.0,15.0,59,0.00,,,0.01,770,Wunderground v.1.15,2013-05-01 03:13:00,
2013-04-30 22:18:00,60.1,44.8,23.36,NNE,18,4.0,5.0,57,0.00,,,0.01,772,Wunderground v.1.15,2013-05-01 03:18:00,
2013-04-30 22:25:00,60.2,44.4,23.37,NNE,12,5.0,6.0,56,0.00,,,0.01,773,Wunderground v.1.15,2013-05-01 03:25:00,
2013-04-30 22:31:00,60.0,44.3,23.38,NE,37,4.0,5.0,56,0.00,,,0.01,763,Wunderground v.1.15,2013-05-01 03:31:00,
2013-04-30 22:37:00,59.8,41.6,23.39,NNE,21,2.0,5.0,51,0.00,,,0.01,768,Wunderground v.1.15,2013-05-01 03:37:00,
2013-04-30 22:42:00,59.8,39.0,23.39,North,11,3.0,5.0,46,0.00,,,0.01,768,Wunderground v.1.15,2013-05-01 03:42:00,
2013-04-30 22:49:00,59.9,36.1,23.40,North,351,6.0,7.0,41,0.00,,,0.01,770,Wunderground v.1.15,2013-05-01 03:49:00,
2013-04-30 22:55:00,59.9,36.1,23.41,North,9,8.0,12.0,41,0.00,,,0.01,772,Wunderground v.1.15,2013-05-01 03:55:00,
2013-04-30 23:01:00,59.9,36.1,23.42,North,11,8.0,15.0,41,0.00,,,0.01,766,Wunderground v.1.15,2013-05-01 04:01:00,
2013-04-30 23:03:00,59.9,35.5,23.42,NNE,15,8.0,15.0,40,0.00,,,0.01,768,Wunderground v.1.15,2013-05-01 04:03:00,
2013-04-30 23:07:00,60.0,35.6,23.42,North,9,8.0,15.0,40,0.00,,,0.01,768,Wunderground v.1.15,2013-05-01 04:07:00,
2013-04-30 23:13:00,60.0,35.6,23.43,NNE,30,9.0,13.0,40,0.00,,,0.01,773,Wunderground v.1.15,2013-05-01 04:13:00,
2013-04-30 23:15:00,60.0,35.6,23.43,NNE,32,9.0,13.0,40,0.00,,,0.01,782,Wunderground v.1.15,2013-05-01 04:15:00,
2013-04-30 23:21:00,60.0,35.6,23.44,NE,38,10.0,13.0,40,0.00,,,0.01,777,Wunderground v.1.15,2013-05-01 04:21:00,
2013-04-30 23:27:00,60.0,35.6,23.45,NE,34,10.0,13.0,40,0.00,,,0.01,777,Wunderground v.1.15,2013-05-01 04:27:00,
2013-04-30 23:33:00,60.2,33.8,23.45,NNE,21,11.0,18.0,37,0.00,,,0.02,780,Wunderground v.1.15,2013-05-01 04:33:00,
2013-04-30 23:39:00,59.9,36.1,23.45,NNE,26,11.0,11.0,41,0.00,,,0.02,775,Wunderground v.1.15,2013-05-01 04:39:00,
2013-04-30 23:45:00,58.1,36.9,23.48,NW,310,8.0,15.0,45,0.00,,,0.02,729,Wunderground v.1.15,2013-05-01 04:45:00,
2013-04-30 23:51:00,57.4,37.9,23.48,NNE,13,8.0,8.0,48,0.00,,,0.03,710,Wunderground v.1.15,2013-05-01 04:51:00,
2013-04-30 23:57:00,54.2,41.0,23.49,NNW,341,6.0,8.0,61,0.30,,,0.09,571,Wunderground v.1.15,2013-05-01 04:57:00,